createdAt,value
2018-01-30T00:00:14.687Z,98523.14
2018-01-30T00:02:42.198Z,98518.45
2018-01-30T00:05:09.726Z,98519.34
2018-01-30T00:07:39.472Z,98519.40
2018-01-30T00:10:07.211Z,98511.33
2018-01-30T00:12:46.979Z,98513.20
2018-01-30T00:18:12.102Z,98513.09
2018-01-30T00:23:43.915Z,98511.23
2018-01-30T00:26:22.394Z,98503.59
2018-01-30T00:28:53.673Z,98510.13
2018-01-30T00:31:21.225Z,98507.20
2018-01-30T00:33:53.773Z,98516.23
2018-01-30T00:36:23.486Z,98516.19
2018-01-30T00:39:02.289Z,98527.07
2018-01-30T00:41:29.970Z,98527.83
2018-01-30T00:44:04.240Z,98531.48
2018-01-30T00:46:32.973Z,98547.19
2018-01-30T00:49:12.205Z,98543.77
2018-01-30T00:51:41.506Z,98551.74
2018-01-30T00:54:17.154Z,98547.01
2018-01-30T00:56:47.547Z,98548.56
2018-01-30T00:59:29.169Z,98544.81
2018-01-30T01:01:57.771Z,98548.92
2018-01-30T01:04:26.028Z,98547.48
2018-01-30T01:06:54.405Z,98552.13
2018-01-30T01:09:21.969Z,98547.61
2018-01-30T01:12:05.042Z,98542.89
2018-01-30T01:14:34.186Z,98560.16
2018-01-30T01:17:03.761Z,98551.20
2018-01-30T01:19:49.527Z,98561.45
2018-01-30T01:22:23.764Z,98563.70
2018-01-30T01:24:55.650Z,98562.56
2018-01-30T01:27:38.981Z,98566.11
2018-01-30T01:30:22.626Z,98550.16
2018-01-30T01:32:50.132Z,98554.33
2018-01-30T01:35:19.069Z,98545.00
2018-01-30T01:38:02.602Z,98548.42
2018-01-30T01:40:35.481Z,98548.08
2018-01-30T01:43:03.047Z,98539.00
2018-01-30T01:45:30.558Z,98542.19
2018-01-30T01:47:58.282Z,98538.75
2018-01-30T01:50:25.784Z,98542.46
2018-01-30T01:52:53.284Z,98536.77
2018-01-30T01:55:21.666Z,98538.85
2018-01-30T01:57:49.219Z,98540.39
2018-01-30T02:00:16.751Z,98545.23
2018-01-30T02:02:44.249Z,98543.91
2018-01-30T02:05:11.797Z,98544.87
2018-01-30T02:07:39.332Z,98541.22
2018-01-30T02:10:06.838Z,98541.17
2018-01-30T02:12:34.366Z,98538.94
2018-01-30T02:15:01.895Z,98531.07
2018-01-30T02:17:30.204Z,98531.48
2018-01-30T02:19:57.862Z,98533.23
2018-01-30T02:22:25.369Z,98528.95
2018-01-30T02:24:53.189Z,98530.22
2018-01-30T02:27:20.751Z,98535.67
2018-01-30T02:29:48.257Z,98535.52
2018-01-30T02:32:15.788Z,98540.38
2018-01-30T02:34:43.300Z,98541.80
2018-01-30T02:37:10.833Z,98540.23
2018-01-30T02:39:38.337Z,98546.63
2018-01-30T02:42:05.840Z,98550.15
2018-01-30T02:44:33.377Z,98546.13
2018-01-30T02:47:00.892Z,98549.49
2018-01-30T02:49:28.439Z,98539.10
2018-01-30T02:51:55.944Z,98536.95
2018-01-30T02:54:23.445Z,98544.33
2018-01-30T02:56:50.973Z,98532.83
2018-01-30T02:59:18.507Z,98540.31
2018-01-30T03:01:46.373Z,98527.30
2018-01-30T03:04:13.873Z,98529.66
2018-01-30T03:06:41.376Z,98518.74
2018-01-30T03:09:08.909Z,98521.05
2018-01-30T03:11:36.412Z,98527.17
2018-01-30T03:14:04.175Z,98528.45
2018-01-30T03:16:31.729Z,98529.77
2018-01-30T03:18:59.228Z,98513.34
2018-01-30T03:21:26.765Z,98521.53
2018-01-30T03:23:54.302Z,98524.00
2018-01-30T03:26:22.272Z,98514.72
2018-01-30T03:28:49.776Z,98513.66
2018-01-30T03:31:17.287Z,98513.61
2018-01-30T03:33:44.848Z,98509.95
2018-01-30T03:36:12.352Z,98516.35
2018-01-30T03:38:40.374Z,98522.00
2018-01-30T03:41:07.887Z,98524.97
2018-01-30T03:43:35.391Z,98529.80
2018-01-30T03:46:02.939Z,98519.69
2018-01-30T03:48:30.529Z,98518.84
2018-01-30T03:50:58.250Z,98525.28
2018-01-30T03:53:25.755Z,98519.73
2018-01-30T03:55:53.290Z,98524.13
2018-01-30T03:58:20.846Z,98521.59
2018-01-30T04:00:48.353Z,98522.59
2018-01-30T04:03:16.252Z,98518.53
2018-01-30T04:05:43.748Z,98520.48
2018-01-30T04:08:11.292Z,98517.05
2018-01-30T04:10:38.850Z,98526.38
2018-01-30T04:13:07.330Z,98517.19
2018-01-30T04:15:35.172Z,98527.83
2018-01-30T04:18:03.078Z,98532.19
2018-01-30T04:20:30.582Z,98536.78
2018-01-30T04:22:58.104Z,98536.50
2018-01-30T04:25:25.636Z,98542.94
2018-01-30T04:27:53.401Z,98539.64
2018-01-30T04:30:20.900Z,98539.58
2018-01-30T04:32:48.432Z,98539.58
2018-01-30T04:35:15.952Z,98538.53
2018-01-30T04:37:43.449Z,98545.17
2018-01-30T04:40:11.196Z,98535.83
2018-01-30T04:42:38.756Z,98535.63
2018-01-30T04:45:06.272Z,98546.16
2018-01-30T04:47:33.812Z,98549.55
2018-01-30T04:50:01.330Z,98554.41
2018-01-30T04:52:28.890Z,98556.44
2018-01-30T04:54:56.401Z,98559.61
2018-01-30T04:57:23.921Z,98558.71
2018-01-30T04:59:51.477Z,98565.23
2018-01-30T05:02:19.046Z,98561.34
2018-01-30T05:04:46.577Z,98568.25
2018-01-30T05:07:14.106Z,98568.72
2018-01-30T05:09:41.906Z,98566.45
2018-01-30T05:12:09.466Z,98570.98
2018-01-30T05:14:36.977Z,98568.11
2018-01-30T05:17:04.520Z,98566.73
2018-01-30T05:19:32.023Z,98581.24
2018-01-30T05:21:59.676Z,98586.54
2018-01-30T05:24:27.229Z,98594.12
2018-01-30T05:26:54.737Z,98599.83
2018-01-30T05:29:22.257Z,98607.79
2018-01-30T05:31:49.762Z,98597.02
2018-01-30T05:34:17.499Z,98598.92
2018-01-30T05:36:45.122Z,98604.90
2018-01-30T05:39:12.634Z,98604.77
2018-01-30T05:41:40.176Z,98610.05
2018-01-30T05:44:23.128Z,98611.79
2018-01-30T05:46:50.665Z,98611.03
2018-01-30T05:49:18.171Z,98621.84
2018-01-30T05:51:46.612Z,98607.98
2018-01-30T05:54:23.573Z,98617.07
2018-01-30T05:56:51.113Z,98614.84
2018-01-30T05:59:29.692Z,98609.81
2018-01-30T06:01:57.221Z,98614.41
2018-01-30T06:04:28.587Z,98620.79
2018-01-30T06:06:56.113Z,98616.81
2018-01-30T06:09:24.900Z,98617.20
2018-01-30T06:12:03.741Z,98619.56
2018-01-30T06:14:37.149Z,98610.86
2018-01-30T06:17:06.438Z,98618.62
2018-01-30T06:19:37.870Z,98623.06
2018-01-30T06:22:12.602Z,98626.44
2018-01-30T06:24:43.841Z,98628.51
2018-01-30T06:27:11.344Z,98628.55
2018-01-30T06:29:49.067Z,98632.27
2018-01-30T06:32:28.512Z,98631.00
2018-01-30T06:34:56.491Z,98640.38
2018-01-30T06:37:27.894Z,98629.47
2018-01-30T06:40:01.036Z,98625.68
2018-01-30T06:42:28.540Z,98624.94
2018-01-30T06:44:56.061Z,98623.40
2018-01-30T06:47:23.597Z,98623.88
2018-01-30T06:49:51.102Z,98626.94
2018-01-30T06:52:18.637Z,98630.95
2018-01-30T06:54:46.145Z,98628.24
2018-01-30T06:57:13.655Z,98635.09
2018-01-30T06:59:41.312Z,98637.94
2018-01-30T07:02:08.821Z,98636.78
2018-01-30T07:04:36.535Z,98641.20
2018-01-30T07:07:04.041Z,98647.88
2018-01-30T07:09:31.559Z,98645.43
2018-01-30T07:11:59.092Z,98642.05
2018-01-30T07:14:26.604Z,98645.78
2018-01-30T07:16:54.308Z,98655.97
2018-01-30T07:19:21.808Z,98659.31
2018-01-30T07:21:49.325Z,98657.13
2018-01-30T07:24:16.866Z,98661.34
2018-01-30T07:26:44.371Z,98668.91
2018-01-30T07:29:11.920Z,98660.39
2018-01-30T07:31:39.430Z,98669.64
2018-01-30T07:34:06.936Z,98665.88
2018-01-30T07:36:34.489Z,98667.48
2018-01-30T07:39:01.998Z,98660.31
2018-01-30T07:41:29.555Z,98650.16
2018-01-30T07:43:57.119Z,98655.29
2018-01-30T07:46:24.629Z,98649.42
2018-01-30T07:48:52.168Z,98648.70
2018-01-30T07:51:19.677Z,98651.95
2018-01-30T07:53:47.288Z,98648.47
2018-01-30T07:56:14.800Z,98655.17
2018-01-30T07:58:42.304Z,98656.82
2018-01-30T08:01:09.838Z,98658.85
2018-01-30T08:03:37.346Z,98658.52
2018-01-30T08:06:05.180Z,98655.44
2018-01-30T08:08:32.687Z,98658.27
2018-01-30T08:11:00.485Z,98665.19
2018-01-30T08:13:28.009Z,98665.10
2018-01-30T08:15:55.533Z,98668.30
2018-01-30T08:18:23.276Z,98671.06
2018-01-30T08:20:50.780Z,98677.05
2018-01-30T08:23:18.317Z,98676.50
2018-01-30T08:25:46.016Z,98675.27
2018-01-30T08:28:13.546Z,98672.02
2018-01-30T08:30:41.224Z,98673.05
2018-01-30T08:33:08.729Z,98675.53
2018-01-30T08:35:36.231Z,98678.45
2018-01-30T08:38:03.780Z,98677.14
2018-01-30T08:40:31.296Z,98682.42
2018-01-30T08:42:59.079Z,98677.64
2018-01-30T08:45:26.589Z,98676.58
2018-01-30T08:47:54.096Z,98675.91
2018-01-30T08:50:21.637Z,98674.73
2018-01-30T08:52:49.140Z,98675.13
2018-01-30T08:55:16.677Z,98672.75
2018-01-30T08:57:44.185Z,98674.83
2018-01-30T09:00:11.720Z,98670.43
2018-01-30T09:02:39.233Z,98671.79
2018-01-30T09:05:06.770Z,98669.58
2018-01-30T09:07:34.281Z,98677.72
2018-01-30T09:10:01.812Z,98676.08
2018-01-30T09:12:29.317Z,98677.88
2018-01-30T09:14:57.883Z,98671.48
2018-01-30T09:17:25.390Z,98672.41
2018-01-30T09:19:52.900Z,98668.42
2018-01-30T09:22:20.441Z,98665.81
2018-01-30T09:24:47.956Z,98650.63
2018-01-30T09:27:15.504Z,98652.56
2018-01-30T09:29:43.009Z,98645.20
2018-01-30T09:32:10.524Z,98644.46
2018-01-30T09:34:38.099Z,98646.86
2018-01-30T09:37:05.609Z,98650.52
2018-01-30T09:39:33.148Z,98648.84
2018-01-30T09:42:00.664Z,98647.49
2018-01-30T09:44:28.172Z,98650.95
2018-01-30T09:46:55.709Z,98661.36
2018-01-30T09:49:23.236Z,98661.45
2018-01-30T09:51:50.788Z,98661.86
2018-01-30T09:54:18.313Z,98655.19
2018-01-30T09:56:45.838Z,98641.22
2018-01-30T09:59:13.389Z,98658.87
2018-01-30T10:01:40.909Z,98655.75
2018-01-30T10:04:08.601Z,98647.75
2018-01-30T10:06:36.121Z,98649.17
2018-01-30T10:09:03.641Z,98655.66
2018-01-30T10:11:31.180Z,98657.09
2018-01-30T10:13:58.698Z,98656.56
2018-01-30T10:16:26.430Z,98646.30
2018-01-30T10:18:53.937Z,98642.45
2018-01-30T10:21:21.441Z,98646.53
2018-01-30T10:23:48.973Z,98646.94
2018-01-30T10:26:16.485Z,98648.02
2018-01-30T10:28:44.041Z,98643.70
2018-01-30T10:31:11.546Z,98645.24
2018-01-30T10:33:39.054Z,98651.27
2018-01-30T10:36:06.588Z,98654.33
2018-01-30T10:38:34.104Z,98646.98
2018-01-30T10:41:01.666Z,98644.36
2018-01-30T10:43:30.114Z,98634.80
2018-01-30T10:45:57.626Z,98629.20
2018-01-30T10:48:25.165Z,98632.14
2018-01-30T10:50:52.676Z,98624.30
2018-01-30T10:53:21.172Z,98623.23
2018-01-30T10:55:48.685Z,98620.00
2018-01-30T10:58:16.189Z,98618.59
2018-01-30T11:00:43.726Z,98614.69
2018-01-30T11:03:11.236Z,98612.90
2018-01-30T11:05:40.091Z,98611.78
2018-01-30T11:08:07.610Z,98610.73
2018-01-30T11:10:35.129Z,98607.68
2018-01-30T11:13:02.681Z,98594.88
2018-01-30T11:15:30.225Z,98601.42
2018-01-30T11:17:57.961Z,98592.44
2018-01-30T11:20:25.477Z,98597.72
2018-01-30T11:22:52.995Z,98589.09
2018-01-30T11:25:20.573Z,98585.84
2018-01-30T11:27:48.090Z,98578.22
2018-01-30T11:30:15.861Z,98571.23
2018-01-30T11:32:43.376Z,98571.48
2018-01-30T11:35:10.893Z,98572.20
2018-01-30T11:37:38.679Z,98567.64
2018-01-30T11:40:06.197Z,98562.08
2018-01-30T11:42:33.745Z,98564.81
2018-01-30T11:45:01.262Z,98559.24
2018-01-30T11:47:28.776Z,98562.59
2018-01-30T11:49:56.326Z,98561.55
2018-01-30T11:52:23.842Z,98555.98
2018-01-30T11:54:51.553Z,98558.09
2018-01-30T11:57:19.077Z,98556.81
2018-01-30T11:59:46.602Z,98553.73
2018-01-30T12:02:14.145Z,98554.56
2018-01-30T12:04:41.654Z,98549.55
2018-01-30T12:07:09.400Z,98550.54
2018-01-30T12:09:37.098Z,98543.64
2018-01-30T12:12:04.630Z,98547.88
2018-01-30T12:14:32.195Z,98547.41
2018-01-30T12:16:59.711Z,98546.86
2018-01-30T12:19:27.470Z,98538.34
2018-01-30T12:21:54.989Z,98532.32
2018-01-30T12:24:22.514Z,98528.02
2018-01-30T12:26:50.061Z,98531.70
2018-01-30T12:29:17.581Z,98530.34
2018-01-30T12:31:45.144Z,98521.66
2018-01-30T12:34:12.660Z,98516.95
2018-01-30T12:36:40.172Z,98514.55
2018-01-30T12:39:07.712Z,98509.94
2018-01-30T12:41:35.221Z,98514.28
2018-01-30T12:44:02.949Z,98506.16
2018-01-30T12:46:30.522Z,98507.36
2018-01-30T12:48:58.072Z,98507.29
2018-01-30T12:51:25.614Z,98498.72
2018-01-30T12:53:53.192Z,98493.44
2018-01-30T12:56:20.776Z,98493.22
2018-01-30T12:58:48.290Z,98477.14
2018-01-30T13:01:16.707Z,98473.26
2018-01-30T13:03:44.244Z,98476.30
2018-01-30T13:06:11.765Z,98476.78
2018-01-30T13:08:39.605Z,98468.29
2018-01-30T13:11:07.197Z,98464.94
2018-01-30T13:13:34.764Z,98467.80
2018-01-30T13:16:02.300Z,98463.69
2018-01-30T13:18:29.882Z,98459.49
2018-01-30T13:20:57.453Z,98460.38
2018-01-30T13:23:25.146Z,98459.14
2018-01-30T13:25:53.607Z,98447.27
2018-01-30T13:28:21.153Z,98444.14
2018-01-30T13:30:48.668Z,98449.88
2018-01-30T13:33:16.484Z,98446.33
2018-01-30T13:35:44.001Z,98441.55
2018-01-30T13:38:11.518Z,98438.73
2018-01-30T13:40:39.093Z,98437.44
2018-01-30T13:43:06.618Z,98436.61
2018-01-30T13:45:34.181Z,98440.30
2018-01-30T13:48:01.733Z,98429.08
2018-01-30T13:50:29.265Z,98428.30
2018-01-30T13:52:56.814Z,98428.33
2018-01-30T13:55:24.366Z,98419.90
2018-01-30T13:57:51.930Z,98424.03
2018-01-30T14:00:19.452Z,98429.05
2018-01-30T14:02:46.969Z,98426.48
2018-01-30T14:05:14.528Z,98423.69
2018-01-30T14:07:42.050Z,98425.95
2018-01-30T14:10:09.621Z,98422.36
2018-01-30T14:12:37.161Z,98416.07
2018-01-30T14:15:04.685Z,98420.58
2018-01-30T14:17:32.216Z,98417.35
2018-01-30T14:19:59.803Z,98417.42
2018-01-30T14:22:27.544Z,98418.62
2018-01-30T14:24:55.041Z,98418.64
2018-01-30T14:27:22.552Z,98415.36
2018-01-30T14:29:50.092Z,98411.52
2018-01-30T14:32:17.610Z,98411.94
2018-01-30T14:34:46.137Z,98402.02
2018-01-30T14:37:13.647Z,98399.87
2018-01-30T14:39:41.177Z,98402.72
2018-01-30T14:42:08.717Z,98401.47
2018-01-30T14:44:36.238Z,98397.59
2018-01-30T14:47:03.972Z,98406.02
2018-01-30T14:49:31.486Z,98405.28
2018-01-30T14:51:59.936Z,98404.50
2018-01-30T14:54:27.477Z,98404.57
2018-01-30T14:56:54.999Z,98401.39
2018-01-30T14:59:22.564Z,98395.77
2018-01-30T15:01:50.072Z,98394.21
2018-01-30T15:04:17.582Z,98391.02
2018-01-30T15:06:45.120Z,98389.97
2018-01-30T15:09:12.633Z,98393.52
2018-01-30T15:11:40.349Z,98387.44
2018-01-30T15:14:07.873Z,98382.04
2018-01-30T15:16:35.386Z,98387.45
2018-01-30T15:19:02.921Z,98381.80
2018-01-30T15:21:30.429Z,98374.75
2018-01-30T15:23:58.237Z,98373.41
2018-01-30T15:26:25.749Z,98374.45
2018-01-30T15:28:53.289Z,98375.98
2018-01-30T15:31:20.933Z,98378.09
2018-01-30T15:33:48.442Z,98375.83
2018-01-30T15:36:16.381Z,98364.08
2018-01-30T15:38:43.957Z,98368.81
2018-01-30T15:41:11.474Z,98372.93
2018-01-30T15:43:39.968Z,98367.09
2018-01-30T15:46:07.489Z,98369.52
2018-01-30T15:48:35.216Z,98367.73
2018-01-30T15:51:02.725Z,98357.78
2018-01-30T15:53:30.461Z,98358.55
2018-01-30T15:55:58.112Z,98353.82
2018-01-30T15:58:25.776Z,98350.73
2018-01-30T16:00:54.252Z,98345.64
2018-01-30T16:03:21.765Z,98338.41
2018-01-30T16:05:49.303Z,98338.39
2018-01-30T16:08:16.930Z,98331.41
2018-01-30T16:10:44.536Z,98332.20
2018-01-30T16:13:12.329Z,98328.90
2018-01-30T16:15:39.875Z,98325.72
2018-01-30T16:18:08.193Z,98327.69
2018-01-30T16:20:35.743Z,98326.50
2018-01-30T16:23:03.781Z,98325.53
2018-01-30T16:25:31.588Z,98310.45
2018-01-30T16:28:00.068Z,98319.56
2018-01-30T16:30:27.833Z,98313.55
2018-01-30T16:32:55.540Z,98310.82
2018-01-30T16:35:23.122Z,98316.37
2018-01-30T16:37:50.889Z,98322.70
2018-01-30T16:40:18.393Z,98321.19
2018-01-30T16:42:46.162Z,98313.45
2018-01-30T16:45:15.131Z,98312.14
2018-01-30T16:47:42.817Z,98316.77
2018-01-30T16:50:11.228Z,98314.55
2018-01-30T16:52:39.548Z,98310.73
2018-01-30T16:55:07.416Z,98309.05
2018-01-30T16:57:35.260Z,98303.44
2018-01-30T17:00:03.970Z,98297.94
2018-01-30T17:02:31.816Z,98300.87
2018-01-30T17:04:59.702Z,98295.67
2018-01-30T17:07:27.216Z,98295.23
2018-01-30T17:09:54.795Z,98296.20
2018-01-30T17:12:22.309Z,98294.16
2018-01-30T17:14:49.881Z,98294.41
2018-01-30T17:17:17.394Z,98297.68
2018-01-30T17:19:44.910Z,98301.65
2018-01-30T17:22:12.614Z,98294.63
2018-01-30T17:24:40.481Z,98284.81
2018-01-30T17:27:08.450Z,98291.99
2018-01-30T17:29:36.316Z,98284.08
2018-01-30T17:32:03.958Z,98275.15
2018-01-30T17:34:31.498Z,98272.19
2018-01-30T17:36:59.029Z,98273.05
2018-01-30T17:39:27.048Z,98270.28
2018-01-30T17:41:54.983Z,98275.70
2018-01-30T17:44:23.210Z,98270.16
2018-01-30T17:46:50.756Z,98265.80
2018-01-30T17:49:18.273Z,98258.57
2018-01-30T17:51:45.821Z,98261.99
2018-01-30T17:54:13.337Z,98258.27
2018-01-30T17:56:40.857Z,98267.15
2018-01-30T17:59:08.430Z,98265.50
2018-01-30T18:01:36.024Z,98266.48
2018-01-30T18:04:03.988Z,98261.77
2018-01-30T18:06:31.537Z,98271.55
2018-01-30T18:08:59.083Z,98263.30
2018-01-30T18:11:26.768Z,98265.22
2018-01-30T18:13:54.307Z,98267.09
2018-01-30T18:16:22.194Z,98265.64
2018-01-30T18:18:49.943Z,98266.11
2018-01-30T18:21:17.825Z,98262.98
2018-01-30T18:23:45.586Z,98271.92
2018-01-30T18:26:13.457Z,98267.58
2018-01-30T18:28:41.526Z,98269.31
2018-01-30T18:31:09.904Z,98269.20
2018-01-30T18:33:37.980Z,98263.91
2018-01-30T18:36:06.832Z,98264.20
2018-01-30T18:38:34.771Z,98268.17
2018-01-30T18:41:03.008Z,98270.70
2018-01-30T18:43:30.776Z,98266.26
2018-01-30T18:45:58.640Z,98259.67
2018-01-30T18:48:26.564Z,98261.90
2018-01-30T18:50:54.951Z,98263.83
2018-01-30T18:53:23.069Z,98258.63
2018-01-30T18:55:50.923Z,98263.84
2018-01-30T18:58:18.909Z,98263.58
2018-01-30T19:00:47.271Z,98261.64
2018-01-30T19:03:15.040Z,98264.91
2018-01-30T19:05:50.199Z,98261.42
2018-01-30T19:08:18.037Z,98259.13
2018-01-30T19:10:46.340Z,98258.34
2018-01-30T19:13:14.080Z,98257.19
2018-01-30T19:15:41.787Z,98256.60
2018-01-30T19:18:10.520Z,98258.20
2018-01-30T19:20:38.401Z,98252.66
2018-01-30T19:23:06.250Z,98253.40
2018-01-30T19:25:34.022Z,98256.03
2018-01-30T19:28:01.831Z,98247.16
2018-01-30T19:30:29.608Z,98249.22
2018-01-30T19:32:57.359Z,98249.66
2018-01-30T19:35:25.284Z,98250.73
2018-01-30T19:37:53.208Z,98243.70
2018-01-30T19:40:21.023Z,98235.98
2018-01-30T19:42:48.986Z,98244.92
2018-01-30T19:45:16.852Z,98241.49
2018-01-30T19:47:44.623Z,98244.36
2018-01-30T19:50:12.481Z,98240.02
2018-01-30T19:52:40.261Z,98233.75
2018-01-30T19:55:08.334Z,98230.80
2018-01-30T19:57:36.196Z,98226.98
2018-01-30T20:00:04.044Z,98220.92
2018-01-30T20:02:31.826Z,98224.05
2018-01-30T20:05:00.498Z,98225.56
2018-01-30T20:07:28.571Z,98224.64
2018-01-30T20:09:56.335Z,98221.21
2018-01-30T20:12:31.505Z,98219.03
2018-01-30T20:15:00.474Z,98215.17
2018-01-30T20:17:33.773Z,98226.39
2018-01-30T20:20:01.625Z,98211.72
2018-01-30T20:22:29.491Z,98206.91
2018-01-30T20:24:57.419Z,98204.97
2018-01-30T20:27:25.329Z,98205.55
2018-01-30T20:29:53.398Z,98204.43
2018-01-30T20:32:21.264Z,98201.70
2018-01-30T20:34:49.779Z,98191.17
2018-01-30T20:37:24.660Z,98184.60
2018-01-30T20:39:52.511Z,98186.34
2018-01-30T20:42:20.388Z,98182.98
2018-01-30T20:44:48.184Z,98180.86
2018-01-30T20:47:15.976Z,98180.08
2018-01-30T20:49:44.009Z,98174.17
2018-01-30T20:52:11.878Z,98176.49
2018-01-30T20:54:39.701Z,98168.66
2018-01-30T20:57:08.120Z,98166.17
2018-01-30T20:59:36.806Z,98158.84
2018-01-30T21:02:04.673Z,98151.19
2018-01-30T21:04:32.952Z,98147.82
2018-01-30T21:07:00.798Z,98147.15
2018-01-30T21:09:28.682Z,98143.98
2018-01-30T21:11:56.450Z,98145.94
2018-01-30T21:14:24.211Z,98148.59
2018-01-30T21:16:58.324Z,98143.58
2018-01-30T21:19:26.084Z,98140.31
2018-01-30T21:21:53.849Z,98145.89
2018-01-30T21:24:25.608Z,98136.15
2018-01-30T21:26:53.475Z,98126.78
2018-01-30T21:29:21.443Z,98122.36
2018-01-30T21:31:49.188Z,98111.88
2018-01-30T21:34:17.020Z,98107.82
2018-01-30T21:36:55.385Z,98099.41
2018-01-30T21:39:23.250Z,98098.98
2018-01-30T21:41:50.998Z,98103.03
2018-01-30T21:44:18.884Z,98101.41
2018-01-30T21:47:03.338Z,98098.17
2018-01-30T21:49:31.048Z,98094.56
2018-01-30T21:51:58.866Z,98095.30
2018-01-30T21:54:26.730Z,98092.14
2018-01-30T21:56:54.597Z,98088.18
2018-01-30T21:59:22.424Z,98091.44
2018-01-30T22:02:03.200Z,98085.81
2018-01-30T22:04:31.201Z,98080.61
2018-01-30T22:06:59.091Z,98076.87
2018-01-30T22:09:26.693Z,98069.43
2018-01-30T22:12:04.324Z,98069.86
2018-01-30T22:14:31.882Z,98066.74
2018-01-30T22:16:59.940Z,98063.30
2018-01-30T22:19:27.612Z,98063.27
2018-01-30T22:21:55.277Z,98063.08
2018-01-30T22:24:28.761Z,98058.02
2018-01-30T22:26:56.541Z,98062.12
2018-01-30T22:29:24.306Z,98052.72
2018-01-30T22:31:51.839Z,98048.20
2018-01-30T22:34:19.487Z,98049.23
2018-01-30T22:36:47.186Z,98054.66
2018-01-30T22:39:14.701Z,98059.28
2018-01-30T22:41:48.679Z,98058.77
2018-01-30T22:44:16.328Z,98051.33
2018-01-30T22:46:43.992Z,98052.13
